Ocracoke, NC

10:42 AM EST on February 28, 2017 (GMT -0500)
The Ocracoke Harbor Inn/Silver Lake | | Change Station

Elev 15 ft 35.11 °N, 75.98 °W | Updated 5 seconds ago

Mostly Cloudy
Mostly Cloudy
71.8 °F
Feels Like 76 °F
N
6.0
Wind Variable Wind from South
Gusts 13.0 mph

Today
High -- | Low -- °F
--% Chance of Precip.
Yesterday
High -- | Low -- °F
Precip. -- in
Pressure 30.34 in
Visibility 5.0 miles
Clouds Few 2100 ft
Overcast 7000 ft
Heat Index 76 °F
Dew Point 57 °F
Humidity 60%
Rainfall 0.00 in
Snow Depth Not available.
6:34 AM 5:58 PM
Waxing Crescent, 5% visible
METAR KHSE 281451Z AUTO 20011KT 5SM HZ FEW021 OVC070 22/17 A3034 RMK AO2 SLP274 T02220167 51006 TSNO
Pressure 30.34 in
Visibility 5.0 miles
Clouds Few 2100 ft
Overcast 7000 ft
Heat Index 76 °F
Dew Point 57 °F
Humidity 60%
Rainfall 0.00 in
Snow Depth Not available.
6:34 AM 5:58 PM
Waxing Crescent, 5% visible
METAR KHSE 281451Z AUTO 20011KT 5SM HZ FEW021 OVC070 22/17 A3034 RMK AO2 SLP274 T02220167 51006 TSNO

Get Your Daily Forecast Email!

Thanks for signing up!

Be on the lookout for a verification email in your inbox.

You'll start receiving the daily forecast at 8 AM.

×

10-Day Weather Forecast

Almanac

Astronomy

Feb. 28, 2017 Rise Set
Actual Time
Civil Twilight
Nautical Twilight
Astronomical Twilight
Moon
Length of Visible Light
Length of Day
Tomorrow will be .
, % of the Moon is Illuminated

Today's Extremes

State Highs State Lows

Community

WunderPhotos

Upload Photos

1,962,540 photos uploaded!

WunderBlog® & News

Nearby

Air Quality

  Air Quality AQ Index Pollutant
Not available.

Snow Depth

Station Depth Elevation

Earthquake Activity

City Distance Mag. Time & Date
Minimum magnitude displayed is 2.5.

Coastal Water Temperatures

Place Temperature

Stations

Nearby Weather Stations

Station Location Temp. Windchill Dew Point Humidity Wind Precip. Elev Updated Type
                   

Watches & Warnings

There are currently no watches in effect.